Vass, North Carolina
Current Conditions -  °F | °C
As of 1:15 AM on Thursday 23 Oct 2014 (Local Time) from KSOP Reporting Station
Clear Clear  
Wind Chill: 48°   Ceiling: Unl
Heat Index: 48°   Visibility: 10mi
Dew Point: 37°   Wind: 3mph
Humidity: 66%   Direction: 270°W
Pressure: 30.06"   Gusts: NA
Location:  35.26°N, 79.28°W
Report Text: KSOP 230515Z AUTO 27003KT 10SM CLR 09/03 A3006 RMK AO1
Loading
Personal Weather Stations






























Interactive Weather Map New forecast layout! Learn more

10-Day Weather Forecast

Advertisements
Track Severe Weather on mobile